Latest Weather Observations for Hindmarsh Island

IDS60901

Issued at 6:41 am CDT Saturday 28 November 2020 (issued every 10 minutes, with the page automatically refreshed every 10 minutes)

About weather observations | Map of Adelaide area stations | Latest observations for Adelaide area | Other Formats
Station Details ID: 023894 Name: HINDMARSH ISLAND AWS Lat: -35.52 Lon: 138.82 Height: 11.0 m
Data from the previous 72 hours. | See also: Recent months at Hindmarsh Island
Date/Time
CDT
Temp
°C
App
Temp
°C
Dew
Point
°C
Rel
Hum
%
Delta-T
°C
Wind Press
QNH
hPa
Press
MSL
hPa
Rain since
9am
mm
Dir  Spd
km/h
Gust
km/h
Spd
kts
Gust
kts
28/06:30am 18.2 17.9 15.5 84 1.6 S 11 13 6 7 1003.2 1003.1 0.0
28/06:00am 18.0 17.3 15.4 85 1.5 SSW 13 13 7 7 1003.2 1003.1 0.0
28/05:30am 17.4 16.6 15.2 87 1.3 SW 13 15 7 8 1003.0 1002.9 0.0
28/05:00am 16.8 16.5 14.3 85 1.4 WSW 9 13 5 7 1003.0 1002.9 0.0
28/04:30am 17.0 17.1 14.5 85 1.4 WNW 7 11 4 6 1002.9 1002.8 0.0
28/04:00am 17.3 17.1 14.8 85 1.4 WNW 9 13 5 7 1003.1 1003.0 0.0
28/03:30am 16.7 15.5 14.0 84 1.5 NE 13 19 7 10 1003.7 1003.6 0.0
28/03:00am 17.5 16.9 14.6 83 1.7 S 11 15 6 8 1005.1 1005.0 0.0
28/02:30am 17.7 16.8 14.8 83 1.7 S 13 17 7 9 1005.7 1005.6 0.0
28/02:00am 17.6 18.0 14.7 83 1.7 SSE 6 20 3 11 1006.0 1005.9 0.0
28/01:30am 17.6 16.6 14.7 83 1.7 S 13 19 7 10 1006.7 1006.6 0.0
28/01:00am 17.7 16.9 15.0 84 1.6 S 13 17 7 9 1006.8 1006.7 0.0
28/12:30am 17.9 16.3 15.0 83 1.7 S 17 20 9 11 1007.8 1007.8 0.0
28/12:00am 18.0 16.8 15.1 83 1.7 S 15 19 8 10 1007.9 1007.9 0.0
 
Date/Time
CDT
Temp
°C
App
Temp
°C
Dew
Point
°C
Rel
Hum
%
Delta-T
°C
Wind Press
QNH
hPa
Press
MSL
hPa
Rain since
9am
mm
Dir  Spd
km/h
Gust
km/h
Spd
kts
Gust
kts
27/11:30pm 18.5 15.7 15.4 82 1.8 SSW 24 30 13 16 1008.0 1008.0 0.0
27/11:00pm 18.8 16.1 15.7 82 1.8 SSW 24 28 13 15 1007.9 1007.9 0.0
27/10:30pm 19.7 16.4 16.0 79 2.2 SSW 28 33 15 18 1007.7 1007.7 0.0
27/10:00pm 18.3 17.0 12.5 69 3.2 ESE 11 19 6 10 1007.3 1007.2 0.0
27/09:30pm 19.5 19.2 12.8 65 3.8 SSW 6 11 3 6 1005.9 1005.8 0.0
27/09:00pm 20.8 21.0 14.2 66 3.8 WNW 6 7 3 4 1005.3 1005.2 0.0
27/08:30pm 20.7 21.8 13.6 64 4.1 CALM 0 6 0 3 1005.6 1005.5 0.0
27/08:00pm 20.9 21.3 13.6 63 4.2 WSW 4 7 2 4 1005.7 1005.6 0.0
27/07:30pm 21.9 21.1 13.0 57 5.1 SSW 9 11 5 6 1005.9 1005.8 0.0
27/07:00pm 22.2 21.0 14.1 60 4.7 SW 13 15 7 8 1006.1 1006.0 0.0
27/06:30pm 22.6 21.4 13.9 58 5.1 SW 13 17 7 9 1006.3 1006.2 0.0
27/06:00pm 23.3 22.3 14.6 58 5.2 SW 13 17 7 9 1006.5 1006.4 0.0
27/05:30pm 23.5 22.4 15.3 60 4.9 SSW 15 17 8 9 1006.9 1006.8 0.0
27/05:00pm 23.5 22.3 15.0 59 5.1 SSW 15 17 8 9 1007.2 1007.1 0.0
27/04:30pm 23.7 22.7 15.7 61 4.8 SSW 15 19 8 10 1007.5 1007.5 0.0
27/04:00pm 23.9 22.3 15.9 61 4.8 SSW 19 24 10 13 1007.7 1007.7 0.0
27/03:30pm 23.6 21.6 15.6 61 4.8 SSW 20 24 11 13 1007.9 1007.9 0.0
27/03:00pm 24.8 22.7 15.1 54 5.8 SSW 20 26 11 14 1008.1 1008.1 0.0
27/02:30pm 25.2 23.0 14.3 50 6.5 SSW 19 22 10 12 1008.3 1008.3 0.0
27/02:00pm 25.1 23.0 15.1 53 6.0 S 20 26 11 14 1008.7 1008.7 0.0
27/01:30pm 25.0 22.4 14.8 53 6.1 S 22 30 12 16 1008.8 1008.8 0.0
27/01:00pm 24.8 21.3 14.6 53 6.1 S 26 32 14 17 1008.7 1008.7 0.0
27/12:30pm 25.9 20.2 14.1 48 7.0 S 37 44 20 24 1008.5 1008.5 0.0
27/12:19pm 27.2 23.5 12.8 41 8.4 SSW 24 41 13 22 1008.1 1008.1 0.0
27/12:00pm 28.9 27.4 11.9 35 9.9 SSW 11 20 6 11 1008.5 1008.5 0.0
27/11:30am 28.9 25.0 13.2 38 9.3 S 26 33 14 18 1008.4 1008.4 0.0
27/11:00am 25.1 23.1 17.3 62 4.9 S 24 35 13 19 1008.4 1008.4 0.0
27/10:30am 26.4 23.9 16.1 53 6.3 S 24 30 13 16 1008.4 1008.4 0.0
27/10:00am 27.8 26.5 15.8 48 7.4 SSE 17 20 9 11 1008.1 1008.1 0.0
27/09:30am 30.1 28.2 10.6 30 11.2 ENE 11 17 6 9 1008.2 1008.2 0.0
27/09:00am 28.6 26.1 11.2 34 10.0 ENE 15 20 8 11 1008.3 1008.3 0.0
27/08:30am 26.3 24.0 13.1 44 7.7 NE 17 22 9 12 1008.3 1008.3 0.0
27/08:00am 22.4 20.3 13.5 57 5.1 NE 17 20 9 11 1008.2 1008.2 0.0
27/07:30am 19.7 17.8 12.9 65 3.8 NE 15 17 8 9 1008.3 1008.3 0.0
27/07:00am 17.3 15.8 12.0 71 2.9 NE 11 15 6 8 1008.3 1008.3 0.0
27/06:30am 15.1 14.1 10.9 76 2.2 NE 7 11 4 6 1008.3 1008.3 0.0
27/06:00am 14.8 13.8 11.0 78 2.0 N 7 15 4 8 1008.4 1008.4 0.0
27/05:30am 14.8 12.0 11.4 80 1.8 N 17 22 9 12 1008.3 1008.3 0.0
27/05:00am 15.1 11.3 11.3 78 2.0 N 22 26 12 14 1008.2 1008.2 0.0
27/04:30am 15.3 12.2 12.1 81 1.7 N 20 26 11 14 1008.5 1008.5 0.0
27/04:00am 13.6 13.1 10.8 83 1.5 NE 4 7 2 4 1008.8 1008.8 0.0
27/03:30am 14.4 13.1 11.2 81 1.7 N 9 11 5 6 1009.3 1009.3 0.0
27/03:00am 14.9 14.4 11.9 82 1.6 ENE 6 9 3 5 1009.8 1009.8 0.0
27/02:30am 14.8 13.3 11.9 83 1.6 NNE 11 13 6 7 1010.0 1010.0 0.0
27/02:00am 14.9 14.2 12.0 83 1.6 N 7 9 4 5 1010.5 1010.5 0.0
27/01:30am 15.1 14.4 12.1 82 1.6 N 7 9 4 5 1011.0 1011.0 0.0
27/01:00am 15.0 14.0 12.3 84 1.5 N 9 13 5 7 1011.5 1011.5 0.0
27/12:30am 15.1 14.1 12.2 83 1.6 NNW 9 11 5 6 1012.0 1012.0 0.0
27/12:00am 15.2 14.2 12.2 82 1.6 NW 9 9 5 5 1012.6 1012.6 0.0
 
Date/Time
CDT
Temp
°C
App
Temp
°C
Dew
Point
°C
Rel
Hum
%
Delta-T
°C
Wind Press
QNH
hPa
Press
MSL
hPa
Rain since
9am
mm
Dir  Spd
km/h
Gust
km/h
Spd
kts
Gust
kts
26/11:30pm 15.5 14.9 12.4 82 1.7 NW 7 11 4 6 1013.1 1013.1 0.0
26/11:00pm 15.9 15.4 12.6 81 1.8 NW 7 11 4 6 1013.4 1013.4 0.0
26/10:30pm 16.1 15.8 12.7 80 1.9 W 6 7 3 4 1013.6 1013.6 0.0
26/10:00pm 16.5 17.3 12.7 78 2.1 CALM 0 0 0 0 1013.8 1013.8 0.0
26/09:30pm 16.6 16.1 12.6 77 2.2 S 7 9 4 5 1013.8 1013.8 0.0
26/09:00pm 16.7 15.5 12.7 77 2.2 S 11 15 6 8 1014.2 1014.2 0.0
26/08:30pm 16.9 15.3 12.8 77 2.3 SSE 13 17 7 9 1014.1 1014.1 0.0
26/08:00pm 17.0 14.6 12.5 75 2.5 S 17 20 9 11 1014.0 1014.0 0.0
26/07:30pm 17.6 14.7 12.9 74 2.6 S 20 24 11 13 1014.0 1014.0 0.0
26/07:00pm 18.4 15.3 13.3 72 2.9 S 22 26 12 14 1013.7 1013.7 0.0
26/06:30pm 18.5 14.9 12.9 70 3.1 S 24 28 13 15 1013.6 1013.6 0.0
26/06:00pm 19.0 14.9 12.7 67 3.5 SSE 26 30 14 16 1013.6 1013.6 0.0
26/05:30pm 19.0 15.1 12.0 64 3.9 S 24 30 13 16 1013.8 1013.8 0.0
26/05:00pm 18.5 14.2 12.0 66 3.6 S 26 30 14 16 1013.9 1013.9 0.0
26/04:30pm 18.9 14.9 11.9 64 3.9 S 24 30 13 16 1014.1 1014.1 0.0
26/04:00pm 19.6 15.8 12.4 63 4.0 S 24 30 13 16 1014.3 1014.3 0.0
26/03:30pm 19.5 16.2 12.8 65 3.8 S 22 30 12 16 1014.3 1014.3 0.0
26/03:00pm 19.3 15.0 12.1 63 4.0 S 26 32 14 17 1014.9 1014.9 0.0
26/02:30pm 19.5 15.7 12.3 63 4.0 S 24 32 13 17 1015.1 1015.1 0.0
26/02:00pm 19.4 15.2 11.2 59 4.5 S 24 32 13 17 1015.3 1015.3 0.0
26/01:30pm 19.4 14.8 10.9 58 4.6 S 26 33 14 18 1015.3 1015.3 0.0
26/01:00pm 19.3 14.8 11.3 60 4.4 SSE 26 33 14 18 1015.5 1015.5 0.0
26/12:30pm 19.8 16.4 12.6 63 4.0 SSE 22 30 12 16 1015.6 1015.6 0.0
26/12:00pm 19.3 15.0 12.1 63 4.0 SSE 26 33 14 18 1016.0 1016.0 0.0
26/11:30am 19.5 15.5 13.0 66 3.7 SSE 26 32 14 17 1015.9 1015.9 0.0
26/11:00am 19.4 15.8 12.9 66 3.7 SE 24 32 13 17 1015.9 1015.9 0.0
26/10:30am 18.6 14.9 12.6 68 3.3 SE 24 30 13 16 1015.9 1015.9 0.0
26/10:00am 18.2 14.1 12.6 70 3.1 SE 26 30 14 16 1015.7 1015.7 0.0
26/09:30am 18.4 13.8 12.4 68 3.3 SSE 28 33 15 18 1015.7 1015.7 0.0
26/09:00am 17.9 13.4 12.6 71 2.9 SSE 28 32 15 17 1015.6 1015.6 0.0
26/08:30am 18.2 13.7 12.6 70 3.1 SE 28 32 15 17 1015.4 1015.4 0.0
26/08:00am 17.9 13.7 12.4 70 3.1 SE 26 32 14 17 1015.0 1015.0 0.0
26/07:30am 17.5 13.8 12.6 73 2.7 SSE 24 28 13 15 1014.6 1014.6 0.0
26/07:00am 17.2 12.8 12.9 76 2.4 SSE 28 33 15 18 1014.4 1014.4 0.0
26/06:30am 16.9 12.4 12.6 76 2.4 S 28 32 15 17 1014.0 1014.0 0.0
26/06:00am 16.8 12.0 12.9 78 2.2 S 30 35 16 19 1013.5 1013.5 0.0
26/05:30am 16.8 12.0 12.9 78 2.2 S 30 33 16 18 1012.9 1012.9 0.0
26/05:00am 16.9 12.2 13.2 79 2.1 S 30 33 16 18 1012.3 1012.3 0.0
26/04:30am 17.1 12.9 13.6 80 2.0 S 28 33 15 18 1012.1 1012.1 0.0
26/04:00am 17.4 13.4 14.1 81 1.9 SSW 28 33 15 18 1011.7 1011.7 0.0
26/03:30am 17.4 13.8 14.1 81 1.9 SSW 26 30 14 16 1011.4 1011.4 0.0
26/03:00am 17.6 13.9 13.9 79 2.1 SSW 26 33 14 18 1011.3 1011.3 0.0
26/02:30am 17.6 15.0 13.9 79 2.1 SSW 20 24 11 13 1011.2 1011.2 0.0
26/02:00am 18.0 15.4 13.7 76 2.4 SSW 20 24 11 13 1011.0 1011.0 0.0
26/01:30am 18.0 15.6 12.7 71 3.0 SW 17 20 9 11 1010.9 1010.9 0.0
26/01:00am 18.0 16.5 12.0 68 3.3 SW 11 15 6 8 1011.1 1011.1 0.0
26/12:30am 17.2 15.9 9.9 62 3.9 WNW 7 13 4 7 1011.0 1011.0 0.0
26/12:00am 17.8 16.2 10.2 61 4.0 NNW 9 13 5 7 1010.8 1010.8 0.0
 
Date/Time
CDT
Temp
°C
App
Temp
°C
Dew
Point
°C
Rel
Hum
%
Delta-T
°C
Wind Press
QNH
hPa
Press
MSL
hPa
Rain since
9am
mm
Dir  Spd
km/h
Gust
km/h
Spd
kts
Gust
kts
25/11:30pm 18.5 17.3 11.6 64 3.8 NW 9 11 5 6 1011.1 1011.1 0.0
25/11:00pm 19.1 18.0 11.9 63 4.0 W 9 11 5 6 1011.3 1011.3 0.0
25/10:30pm 19.1 16.7 12.6 66 3.6 SW 17 22 9 12 1011.4 1011.4 0.0
25/10:00pm 19.3 16.9 12.6 65 3.8 SW 17 22 9 12 1011.2 1011.2 0.0
25/09:30pm 19.5 16.2 12.8 65 3.8 WSW 22 28 12 15 1011.0 1011.0 0.0
25/09:00pm 19.8 16.2 13.0 65 3.9 SW 24 30 13 16 1010.8 1010.8 0.0
25/08:30pm 20.3 16.8 13.3 64 4.0 WSW 24 30 13 16 1010.5 1010.5 0.0
25/08:00pm 21.1 17.4 12.8 59 4.7 SW 24 30 13 16 1010.2 1010.2 0.0
25/07:30pm 22.9 17.6 11.3 48 6.5 SW 30 37 16 20 1009.6 1009.6 0.0
25/07:06pm 26.1 23.4 10.3 37 8.8 SW 15 30 8 16 1009.0 1009.0 0.0
25/07:00pm 28.0 26.4 8.8 30 10.5 SW 7 9 4 5 1008.6 1008.6 0.0
25/06:30pm 27.5 26.6 11.5 37 9.2 SSW 7 9 4 5 1008.4 1008.4 0.0
25/06:00pm 26.8 25.5 12.5 41 8.3 SSW 11 15 6 8 1008.3 1008.3 0.0
25/05:30pm 26.5 25.2 13.6 45 7.6 S 13 17 7 9 1008.2 1008.2 0.0
25/05:00pm 25.5 23.0 14.0 49 6.8 S 20 24 11 13 1008.2 1008.2 0.0
25/04:30pm 27.2 25.7 13.2 42 8.2 SSW 13 20 7 11 1008.4 1008.4 0.0
25/04:00pm 27.0 24.3 13.4 43 8.0 SSW 20 28 11 15 1008.5 1008.5 0.0
25/03:30pm 28.2 23.8 11.7 36 9.5 SSW 26 32 14 17 1008.5 1008.5 0.0
25/03:17pm 27.4 22.8 12.2 39 8.8 SSW 28 32 15 17 1008.6 1008.6 0.0
25/03:00pm 32.4 26.6 4.2 17 14.7 W 24 33 13 18 1008.5 1008.5 0.0
25/02:30pm 32.7 27.7 4.5 17 14.8 NW 20 32 11 17 1008.6 1008.6 0.0
25/02:00pm 31.7 25.8 3.7 17 14.4 NW 24 33 13 18 1008.7 1008.7 0.0
25/01:30pm 32.0 26.6 4.7 18 14.3 WNW 22 39 12 21 1008.8 1008.8 0.0
25/01:00pm 31.4 25.6 4.2 18 14.1 NW 24 35 13 19 1008.8 1008.8 0.0
25/12:30pm 31.5 26.2 5.1 19 13.9 NW 22 32 12 17 1009.1 1009.1 0.0
25/12:00pm 30.4 25.8 6.3 22 12.9 NNW 20 33 11 18 1009.4 1009.4 0.0
25/11:30am 30.2 25.4 7.4 24 12.4 NNW 22 32 12 17 1009.8 1009.8 0.0
25/11:00am 28.6 24.3 7.8 27 11.3 NNW 20 30 11 16 1010.3 1010.3 0.0
25/10:30am 27.8 24.4 7.6 28 10.9 NNE 15 20 8 11 1010.6 1010.6 0.0
25/10:00am 26.1 22.1 6.7 29 10.2 NNE 17 22 9 12 1011.2 1011.2 0.0
25/09:30am 24.3 19.5 5.6 30 9.5 NNE 20 28 11 15 1011.4 1011.4 0.0
25/09:00am 22.7 17.8 6.9 36 8.1 NNE 22 28 12 15 1011.7 1011.7 0.0
25/08:30am 20.6 17.0 9.8 50 5.8 NNE 19 28 10 15 1011.7 1011.7 0.0
25/08:00am 17.7 14.7 10.6 63 3.8 NNE 17 20 9 11 1011.8 1011.8 0.0
25/07:30am 15.6 12.8 11.4 76 2.3 NNE 17 24 9 13 1011.6 1011.6 0.0
25/07:00am 14.3 11.4 10.9 80 1.8 N 17 20 9 11 1011.6 1011.6 0.0

Latest Capital City Observations: Canberra | Sydney | Melbourne | Brisbane | Adelaide | Perth | Hobart | Darwin

Other formats

Comma delimited format used in spreadsheet applications
http://www.bom.gov.au/fwo/IDS60901/IDS60901.94677.axf

JavaScript Object Notation format (JSON) in row-major order
http://www.bom.gov.au/fwo/IDS60901/IDS60901.94677.json

Data quality

Most of these data are generated automatically and are frequently updated. Quality checks on data are not normally performed. It is possible for incorrect values to appear. Refer to information at About Latest Weather Observations and please check the disclaimer before using these data.